sensor_id;sensor_type;location;lat;lon;timestamp;P1;durP1;ratioP1;P2;durP2;ratioP2
26824;SDS011;14402;48.178;11.566;2024-03-08T00:00:20;10.7;;;9.6;;
26824;SDS011;14402;48.178;11.566;2024-03-08T00:00:50;10.9;;;9.9;;
26824;SDS011;14402;48.178;11.566;2024-03-08T00:01:20;11.2;;;10.1;;
26824;SDS011;14402;48.178;11.566;2024-03-08T00:01:50;11.2;;;10.1;;
26824;SDS011;14402;48.178;11.566;2024-03-08T00:02:20;11.2;;;10.1;;
26824;SDS011;14402;48.178;11.566;2024-03-08T00:02:50;11.3;;;10.2;;
26824;SDS011;14402;48.178;11.566;2024-03-08T00:03:20;11.4;;;10.3;;
26824;SDS011;14402;48.178;11.566;2024-03-08T00:03:50;11.4;;;10.3;;
26824;SDS011;14402;48.178;11.566;2024-03-08T00:04:20;11.4;;;10.3;;
26824;SDS011;14402;48.178;11.566;2024-03-08T00:04:50;11.4;;;10.2;;
26824;SDS011;14402;48.178;11.566;2024-03-08T00:05:20;11.4;;;10.2;;
26824;SDS011;14402;48.178;11.566;2024-03-08T00:05:51;11.4;;;10.2;;
26824;SDS011;14402;48.178;11.566;2024-03-08T00:06:21;11.6;;;10.4;;
26824;SDS011;14402;48.178;11.566;2024-03-08T00:06:51;11.9;;;10.5;;
26824;SDS011;14402;48.178;11.566;2024-03-08T00:07:21;11.9;;;10.5;;
26824;SDS011;14402;48.178;11.566;2024-03-08T00:07:51;11.9;;;10.5;;
26824;SDS011;14402;48.178;11.566;2024-03-08T00:08:21;11.4;;;10.2;;
26824;SDS011;14402;48.178;11.566;2024-03-08T00:08:51;11.0;;;9.9;;
26824;SDS011;14402;48.178;11.566;2024-03-08T00:09:21;11.0;;;9.9;;
26824;SDS011;14402;48.178;11.566;2024-03-08T00:09:51;11.0;;;9.9;;
26824;SDS011;14402;48.178;11.566;2024-03-08T00:10:21;11.2;;;10.0;;
26824;SDS011;14402;48.178;11.566;2024-03-08T00:10:51;11.4;;;10.2;;
26824;SDS011;14402;48.178;11.566;2024-03-08T00:11:21;11.4;;;10.2;;
26824;SDS011;14402;48.178;11.566;2024-03-08T00:11:52;11.4;;;10.2;;
26824;SDS011;14402;48.178;11.566;2024-03-08T00:12:22;11.4;;;10.2;;
26824;SDS011;14402;48.178;11.566;2024-03-08T00:12:52;11.3;;;10.2;;
26824;SDS011;14402;48.178;11.566;2024-03-08T00:13:22;11.3;;;10.2;;
26824;SDS011;14402;48.178;11.566;2024-03-08T00:13:52;11.3;;;10.2;;
26824;SDS011;14402;48.178;11.566;2024-03-08T00:14:22;11.4;;;10.3;;
26824;SDS011;14402;48.178;11.566;2024-03-08T00:14:52;11.5;;;10.4;;
26824;SDS011;14402;48.178;11.566;2024-03-08T00:15:22;11.5;;;10.4;;
26824;SDS011;14402;48.178;11.566;2024-03-08T00:15:52;11.5;;;10.4;;
26824;SDS011;14402;48.178;11.566;2024-03-08T00:16:22;11.1;;;10.0;;
26824;SDS011;14402;48.178;11.566;2024-03-08T00:16:52;10.7;;;9.6;;
26824;SDS011;14402;48.178;11.566;2024-03-08T00:17:23;10.7;;;9.6;;
26824;SDS011;14402;48.178;11.566;2024-03-08T00:17:53;10.7;;;9.6;;
26824;SDS011;14402;48.178;11.566;2024-03-08T00:18:23;10.9;;;9.8;;
26824;SDS011;14402;48.178;11.566;2024-03-08T00:18:53;11.0;;;9.9;;
26824;SDS011;14402;48.178;11.566;2024-03-08T00:19:23;11.0;;;9.9;;
26824;SDS011;14402;48.178;11.566;2024-03-08T00:19:53;11.0;;;9.9;;
26824;SDS011;14402;48.178;11.566;2024-03-08T00:20:23;11.5;;;10.1;;
26824;SDS011;14402;48.178;11.566;2024-03-08T00:20:53;12.0;;;10.3;;
26824;SDS011;14402;48.178;11.566;2024-03-08T00:21:23;12.0;;;10.3;;
26824;SDS011;14402;48.178;11.566;2024-03-08T00:21:53;12.0;;;10.3;;
26824;SDS011;14402;48.178;11.566;2024-03-08T00:22:23;11.7;;;10.3;;
26824;SDS011;14402;48.178;11.566;2024-03-08T00:22:53;11.4;;;10.3;;
26824;SDS011;14402;48.178;11.566;2024-03-08T00:23:23;11.4;;;10.3;;
26824;SDS011;14402;48.178;11.566;2024-03-08T00:23:54;11.4;;;10.3;;
26824;SDS011;14402;48.178;11.566;2024-03-08T00:24:24;11.6;;;10.5;;
26824;SDS011;14402;48.178;11.566;2024-03-08T00:24:54;11.9;;;10.6;;
26824;SDS011;14402;48.178;11.566;2024-03-08T00:25:24;11.9;;;10.6;;
26824;SDS011;14402;48.178;11.566;2024-03-08T00:25:54;11.9;;;10.6;;
26824;SDS011;14402;48.178;11.566;2024-03-08T00:26:24;11.6;;;10.4;;
26824;SDS011;14402;48.178;11.566;2024-03-08T00:26:54;11.4;;;10.2;;
26824;SDS011;14402;48.178;11.566;2024-03-08T00:27:24;11.4;;;10.2;;
26824;SDS011;14402;48.178;11.566;2024-03-08T00:27:54;11.4;;;10.2;;
26824;SDS011;14402;48.178;11.566;2024-03-08T00:28:24;11.4;;;10.1;;
26824;SDS011;14402;48.178;11.566;2024-03-08T00:28:54;11.3;;;10.1;;
26824;SDS011;14402;48.178;11.566;2024-03-08T00:29:24;11.3;;;10.1;;
26824;SDS011;14402;48.178;11.566;2024-03-08T00:29:55;11.3;;;10.1;;
26824;SDS011;14402;48.178;11.566;2024-03-08T00:30:25;11.5;;;10.3;;
26824;SDS011;14402;48.178;11.566;2024-03-08T00:30:55;11.7;;;10.5;;
26824;SDS011;14402;48.178;11.566;2024-03-08T00:31:25;11.7;;;10.5;;
26824;SDS011;14402;48.178;11.566;2024-03-08T00:31:55;11.7;;;10.5;;
26824;SDS011;14402;48.178;11.566;2024-03-08T00:32:25;11.5;;;10.4;;
26824;SDS011;14402;48.178;11.566;2024-03-08T00:32:55;11.4;;;10.2;;
26824;SDS011;14402;48.178;11.566;2024-03-08T00:33:25;11.4;;;10.2;;
26824;SDS011;14402;48.178;11.566;2024-03-08T00:33:55;11.4;;;10.2;;
26824;SDS011;14402;48.178;11.566;2024-03-08T00:34:25;11.6;;;10.4;;
26824;SDS011;14402;48.178;11.566;2024-03-08T00:34:55;11.8;;;10.7;;
26824;SDS011;14402;48.178;11.566;2024-03-08T00:35:25;11.8;;;10.7;;
26824;SDS011;14402;48.178;11.566;2024-03-08T00:35:56;11.8;;;10.7;;
26824;SDS011;14402;48.178;11.566;2024-03-08T00:36:26;11.8;;;10.6;;
26824;SDS011;14402;48.178;11.566;2024-03-08T00:36:56;11.8;;;10.6;;
26824;SDS011;14402;48.178;11.566;2024-03-08T00:37:26;11.8;;;10.6;;
26824;SDS011;14402;48.178;11.566;2024-03-08T00:37:56;11.8;;;10.6;;
26824;SDS011;14402;48.178;11.566;2024-03-08T00:38:26;11.5;;;10.4;;
26824;SDS011;14402;48.178;11.566;2024-03-08T00:38:56;11.2;;;10.1;;
26824;SDS011;14402;48.178;11.566;2024-03-08T00:39:26;11.2;;;10.1;;
26824;SDS011;14402;48.178;11.566;2024-03-08T00:39:56;11.2;;;10.1;;
26824;SDS011;14402;48.178;11.566;2024-03-08T00:40:26;11.5;;;10.4;;
26824;SDS011;14402;48.178;11.566;2024-03-08T00:40:56;11.9;;;10.7;;
26824;SDS011;14402;48.178;11.566;2024-03-08T00:41:26;11.9;;;10.7;;
26824;SDS011;14402;48.178;11.566;2024-03-08T00:41:57;11.9;;;10.7;;
26824;SDS011;14402;48.178;11.566;2024-03-08T00:42:27;11.8;;;10.5;;
26824;SDS011;14402;48.178;11.566;2024-03-08T00:42:57;11.6;;;10.4;;
26824;SDS011;14402;48.178;11.566;2024-03-08T00:43:27;11.6;;;10.4;;
26824;SDS011;14402;48.178;11.566;2024-03-08T00:43:57;11.6;;;10.4;;
26824;SDS011;14402;48.178;11.566;2024-03-08T00:44:27;11.6;;;10.4;;
26824;SDS011;14402;48.178;11.566;2024-03-08T00:44:57;11.7;;;10.5;;
26824;SDS011;14402;48.178;11.566;2024-03-08T00:45:27;11.7;;;10.5;;
26824;SDS011;14402;48.178;11.566;2024-03-08T00:45:57;11.7;;;10.5;;
26824;SDS011;14402;48.178;11.566;2024-03-08T00:46:27;11.7;;;10.5;;
26824;SDS011;14402;48.178;11.566;2024-03-08T00:46:57;11.7;;;10.5;;
26824;SDS011;14402;48.178;11.566;2024-03-08T00:47:27;11.7;;;10.5;;
26824;SDS011;14402;48.178;11.566;2024-03-08T00:47:58;11.7;;;10.5;;
26824;SDS011;14402;48.178;11.566;2024-03-08T00:48:28;12.0;;;10.8;;
26824;SDS011;14402;48.178;11.566;2024-03-08T00:48:58;12.4;;;11.1;;
26824;SDS011;14402;48.178;11.566;2024-03-08T00:49:28;12.4;;;11.1;;
26824;SDS011;14402;48.178;11.566;2024-03-08T00:49:58;12.4;;;11.1;;
26824;SDS011;14402;48.178;11.566;2024-03-08T00:50:28;12.0;;;10.8;;
26824;SDS011;14402;48.178;11.566;2024-03-08T00:50:58;11.7;;;10.5;;
26824;SDS011;14402;48.178;11.566;2024-03-08T00:51:28;11.7;;;10.5;;
26824;SDS011;14402;48.178;11.566;2024-03-08T00:51:58;11.7;;;10.5;;
26824;SDS011;14402;48.178;11.566;2024-03-08T00:52:28;12.4;;;10.6;;
26824;SDS011;14402;48.178;11.566;2024-03-08T00:52:58;13.1;;;10.7;;
26824;SDS011;14402;48.178;11.566;2024-03-08T00:53:29;13.1;;;10.7;;
26824;SDS011;14402;48.178;11.566;2024-03-08T00:53:59;13.1;;;10.7;;
26824;SDS011;14402;48.178;11.566;2024-03-08T00:54:29;13.0;;;10.6;;
26824;SDS011;14402;48.178;11.566;2024-03-08T00:54:59;12.8;;;10.5;;
26824;SDS011;14402;48.178;11.566;2024-03-08T00:55:29;12.8;;;10.5;;
26824;SDS011;14402;48.178;11.566;2024-03-08T00:55:59;12.8;;;10.5;;
26824;SDS011;14402;48.178;11.566;2024-03-08T00:56:29;12.4;;;10.6;;
26824;SDS011;14402;48.178;11.566;2024-03-08T00:56:59;11.9;;;10.7;;
26824;SDS011;14402;48.178;11.566;2024-03-08T00:57:29;11.9;;;10.7;;
26824;SDS011;14402;48.178;11.566;2024-03-08T00:57:59;11.9;;;10.7;;
26824;SDS011;14402;48.178;11.566;2024-03-08T00:58:29;11.9;;;10.7;;
26824;SDS011;14402;48.178;11.566;2024-03-08T00:58:59;11.9;;;10.7;;
26824;SDS011;14402;48.178;11.566;2024-03-08T00:59:29;11.9;;;10.7;;
26824;SDS011;14402;48.178;11.566;2024-03-08T01:00:00;11.9;;;10.7;;
26824;SDS011;14402;48.178;11.566;2024-03-08T01:00:30;11.9;;;10.6;;
26824;SDS011;14402;48.178;11.566;2024-03-08T01:01:00;11.8;;;10.6;;
26824;SDS011;14402;48.178;11.566;2024-03-08T01:01:30;11.8;;;10.6;;
26824;SDS011;14402;48.178;11.566;2024-03-08T01:02:00;11.8;;;10.6;;
26824;SDS011;14402;48.178;11.566;2024-03-08T01:02:30;12.0;;;10.7;;
26824;SDS011;14402;48.178;11.566;2024-03-08T01:03:00;12.1;;;10.8;;
26824;SDS011;14402;48.178;11.566;2024-03-08T01:03:30;12.1;;;10.8;;
26824;SDS011;14402;48.178;11.566;2024-03-08T01:04:00;12.1;;;10.8;;
26824;SDS011;14402;48.178;11.566;2024-03-08T01:04:30;12.0;;;10.8;;
26824;SDS011;14402;48.178;11.566;2024-03-08T01:05:00;11.9;;;10.7;;
26824;SDS011;14402;48.178;11.566;2024-03-08T01:05:30;11.9;;;10.7;;
26824;SDS011;14402;48.178;11.566;2024-03-08T01:06:01;11.9;;;10.7;;
26824;SDS011;14402;48.178;11.566;2024-03-08T01:06:31;12.1;;;10.6;;
26824;SDS011;14402;48.178;11.566;2024-03-08T01:07:01;12.4;;;10.6;;
26824;SDS011;14402;48.178;11.566;2024-03-08T01:07:31;12.4;;;10.6;;
26824;SDS011;14402;48.178;11.566;2024-03-08T01:08:01;12.4;;;10.6;;
26824;SDS011;14402;48.178;11.566;2024-03-08T01:08:31;12.4;;;10.9;;
26824;SDS011;14402;48.178;11.566;2024-03-08T01:09:01;12.3;;;11.1;;
26824;SDS011;14402;48.178;11.566;2024-03-08T01:09:31;12.3;;;11.1;;
26824;SDS011;14402;48.178;11.566;2024-03-08T01:10:01;12.3;;;11.1;;
26824;SDS011;14402;48.178;11.566;2024-03-08T01:10:31;12.2;;;11.0;;
26824;SDS011;14402;48.178;11.566;2024-03-08T01:11:01;12.2;;;10.9;;
26824;SDS011;14402;48.178;11.566;2024-03-08T01:11:31;12.2;;;10.9;;
26824;SDS011;14402;48.178;11.566;2024-03-08T01:12:02;12.2;;;10.9;;
26824;SDS011;14402;48.178;11.566;2024-03-08T01:12:32;12.0;;;10.8;;
26824;SDS011;14402;48.178;11.566;2024-03-08T01:13:02;11.9;;;10.6;;
26824;SDS011;14402;48.178;11.566;2024-03-08T01:13:32;11.9;;;10.6;;
26824;SDS011;14402;48.178;11.566;2024-03-08T01:14:02;11.9;;;10.6;;
26824;SDS011;14402;48.178;11.566;2024-03-08T01:14:32;11.9;;;10.6;;
26824;SDS011;14402;48.178;11.566;2024-03-08T01:15:02;11.8;;;10.5;;
26824;SDS011;14402;48.178;11.566;2024-03-08T01:15:32;11.8;;;10.5;;
26824;SDS011;14402;48.178;11.566;2024-03-08T01:16:02;11.8;;;10.5;;
26824;SDS011;14402;48.178;11.566;2024-03-08T01:16:32;11.7;;;10.4;;
26824;SDS011;14402;48.178;11.566;2024-03-08T01:17:02;11.6;;;10.4;;
26824;SDS011;14402;48.178;11.566;2024-03-08T01:17:33;11.6;;;10.4;;
26824;SDS011;14402;48.178;11.566;2024-03-08T01:18:03;11.6;;;10.4;;
26824;SDS011;14402;48.178;11.566;2024-03-08T01:18:33;12.0;;;10.7;;
26824;SDS011;14402;48.178;11.566;2024-03-08T01:19:03;12.3;;;11.0;;
26824;SDS011;14402;48.178;11.566;2024-03-08T01:19:33;12.3;;;11.0;;
26824;SDS011;14402;48.178;11.566;2024-03-08T01:20:03;12.3;;;11.0;;
26824;SDS011;14402;48.178;11.566;2024-03-08T01:20:33;12.1;;;10.9;;
26824;SDS011;14402;48.178;11.566;2024-03-08T01:21:03;11.9;;;10.7;;
26824;SDS011;14402;48.178;11.566;2024-03-08T01:21:33;11.9;;;10.7;;
26824;SDS011;14402;48.178;11.566;2024-03-08T01:22:03;11.9;;;10.7;;
26824;SDS011;14402;48.178;11.566;2024-03-08T01:22:33;12.0;;;10.8;;
26824;SDS011;14402;48.178;11.566;2024-03-08T01:23:03;12.1;;;10.9;;
26824;SDS011;14402;48.178;11.566;2024-03-08T01:23:33;12.1;;;10.9;;
26824;SDS011;14402;48.178;11.566;2024-03-08T01:24:04;12.1;;;10.9;;
26824;SDS011;14402;48.178;11.566;2024-03-08T01:24:33;12.0;;;10.8;;
26824;SDS011;14402;48.178;11.566;2024-03-08T01:25:04;11.8;;;10.6;;
26824;SDS011;14402;48.178;11.566;2024-03-08T01:25:34;11.8;;;10.6;;
26824;SDS011;14402;48.178;11.566;2024-03-08T01:26:04;11.8;;;10.6;;
26824;SDS011;14402;48.178;11.566;2024-03-08T01:26:34;12.1;;;10.9;;
26824;SDS011;14402;48.178;11.566;2024-03-08T01:27:04;12.4;;;11.1;;
26824;SDS011;14402;48.178;11.566;2024-03-08T01:27:35;12.4;;;11.1;;
26824;SDS011;14402;48.178;11.566;2024-03-08T01:28:04;12.4;;;11.1;;
26824;SDS011;14402;48.178;11.566;2024-03-08T01:28:34;12.3;;;11.0;;
26824;SDS011;14402;48.178;11.566;2024-03-08T01:29:04;12.2;;;10.9;;
26824;SDS011;14402;48.178;11.566;2024-03-08T01:29:34;12.2;;;10.9;;
26824;SDS011;14402;48.178;11.566;2024-03-08T01:30:05;12.2;;;10.9;;
26824;SDS011;14402;48.178;11.566;2024-03-08T01:30:34;11.9;;;10.7;;
26824;SDS011;14402;48.178;11.566;2024-03-08T01:31:04;11.6;;;10.5;;
26824;SDS011;14402;48.178;11.566;2024-03-08T01:31:35;11.6;;;10.5;;
26824;SDS011;14402;48.178;11.566;2024-03-08T01:32:05;11.6;;;10.5;;
26824;SDS011;14402;48.178;11.566;2024-03-08T01:32:35;12.1;;;10.9;;
26824;SDS011;14402;48.178;11.566;2024-03-08T01:33:05;12.6;;;11.3;;
26824;SDS011;14402;48.178;11.566;2024-03-08T01:33:35;12.6;;;11.3;;
26824;SDS011;14402;48.178;11.566;2024-03-08T01:34:05;12.6;;;11.3;;
26824;SDS011;14402;48.178;11.566;2024-03-08T01:34:35;12.2;;;11.0;;
26824;SDS011;14402;48.178;11.566;2024-03-08T01:35:05;11.9;;;10.7;;
26824;SDS011;14402;48.178;11.566;2024-03-08T01:35:35;11.9;;;10.7;;
26824;SDS011;14402;48.178;11.566;2024-03-08T01:36:06;11.9;;;10.7;;
26824;SDS011;14402;48.178;11.566;2024-03-08T01:36:35;12.2;;;10.9;;
26824;SDS011;14402;48.178;11.566;2024-03-08T01:37:06;12.5;;;11.0;;
26824;SDS011;14402;48.178;11.566;2024-03-08T01:37:36;12.5;;;11.0;;
26824;SDS011;14402;48.178;11.566;2024-03-08T01:38:06;12.5;;;11.0;;
26824;SDS011;14402;48.178;11.566;2024-03-08T01:38:36;12.2;;;10.9;;
26824;SDS011;14402;48.178;11.566;2024-03-08T01:39:06;12.0;;;10.8;;
26824;SDS011;14402;48.178;11.566;2024-03-08T01:39:36;12.0;;;10.8;;
26824;SDS011;14402;48.178;11.566;2024-03-08T01:40:06;12.0;;;10.8;;
26824;SDS011;14402;48.178;11.566;2024-03-08T01:40:36;12.1;;;10.8;;
26824;SDS011;14402;48.178;11.566;2024-03-08T01:41:06;12.1;;;10.8;;
26824;SDS011;14402;48.178;11.566;2024-03-08T01:41:36;12.1;;;10.8;;
26824;SDS011;14402;48.178;11.566;2024-03-08T01:42:07;12.1;;;10.8;;
26824;SDS011;14402;48.178;11.566;2024-03-08T01:42:36;12.3;;;11.0;;
26824;SDS011;14402;48.178;11.566;2024-03-08T01:43:24;12.5;;;11.2;;
26824;SDS011;14402;48.178;11.566;2024-03-08T01:43:37;12.5;;;11.2;;
26824;SDS011;14402;48.178;11.566;2024-03-08T01:44:07;12.5;;;11.2;;
26824;SDS011;14402;48.178;11.566;2024-03-08T01:44:37;12.6;;;11.0;;
26824;SDS011;14402;48.178;11.566;2024-03-08T01:45:07;12.6;;;10.8;;
26824;SDS011;14402;48.178;11.566;2024-03-08T01:45:37;12.6;;;10.8;;
26824;SDS011;14402;48.178;11.566;2024-03-08T01:46:07;12.6;;;10.8;;
26824;SDS011;14402;48.178;11.566;2024-03-08T01:46:37;12.4;;;10.9;;
26824;SDS011;14402;48.178;11.566;2024-03-08T01:47:07;12.1;;;10.9;;
26824;SDS011;14402;48.178;11.566;2024-03-08T01:47:37;12.1;;;10.9;;
26824;SDS011;14402;48.178;11.566;2024-03-08T01:48:07;12.1;;;10.9;;
26824;SDS011;14402;48.178;11.566;2024-03-08T01:48:37;11.9;;;10.7;;
26824;SDS011;14402;48.178;11.566;2024-03-08T01:49:07;11.7;;;10.5;;
26824;SDS011;14402;48.178;11.566;2024-03-08T01:49:38;11.7;;;10.5;;
26824;SDS011;14402;48.178;11.566;2024-03-08T01:50:08;11.7;;;10.5;;
26824;SDS011;14402;48.178;11.566;2024-03-08T01:50:38;11.9;;;10.7;;
26824;SDS011;14402;48.178;11.566;2024-03-08T01:51:08;12.1;;;10.9;;
26824;SDS011;14402;48.178;11.566;2024-03-08T01:51:38;12.1;;;10.9;;
26824;SDS011;14402;48.178;11.566;2024-03-08T01:52:08;12.1;;;10.9;;
26824;SDS011;14402;48.178;11.566;2024-03-08T01:52:38;12.2;;;10.9;;
26824;SDS011;14402;48.178;11.566;2024-03-08T01:53:08;12.4;;;11.0;;
26824;SDS011;14402;48.178;11.566;2024-03-08T01:53:38;12.4;;;11.0;;
26824;SDS011;14402;48.178;11.566;2024-03-08T01:54:08;12.4;;;11.0;;
26824;SDS011;14402;48.178;11.566;2024-03-08T01:54:38;12.2;;;10.9;;
26824;SDS011;14402;48.178;11.566;2024-03-08T01:55:08;12.0;;;10.8;;
26824;SDS011;14402;48.178;11.566;2024-03-08T01:55:39;12.0;;;10.8;;
26824;SDS011;14402;48.178;11.566;2024-03-08T01:56:09;12.0;;;10.8;;
26824;SDS011;14402;48.178;11.566;2024-03-08T01:56:39;12.2;;;11.0;;
26824;SDS011;14402;48.178;11.566;2024-03-08T01:57:09;12.4;;;11.1;;
26824;SDS011;14402;48.178;11.566;2024-03-08T01:57:39;12.4;;;11.1;;
26824;SDS011;14402;48.178;11.566;2024-03-08T01:58:09;12.4;;;11.1;;
26824;SDS011;14402;48.178;11.566;2024-03-08T01:58:40;12.5;;;11.2;;
26824;SDS011;14402;48.178;11.566;2024-03-08T01:59:09;12.7;;;11.4;;
26824;SDS011;14402;48.178;11.566;2024-03-08T01:59:39;12.7;;;11.4;;
26824;SDS011;14402;48.178;11.566;2024-03-08T02:00:10;12.7;;;11.4;;
26824;SDS011;14402;48.178;11.566;2024-03-08T02:00:39;12.7;;;11.4;;
26824;SDS011;14402;48.178;11.566;2024-03-08T02:01:10;12.7;;;11.4;;
26824;SDS011;14402;48.178;11.566;2024-03-08T02:01:40;12.7;;;11.4;;
26824;SDS011;14402;48.178;11.566;2024-03-08T02:02:10;12.7;;;11.4;;
26824;SDS011;14402;48.178;11.566;2024-03-08T02:02:40;12.6;;;11.4;;
26824;SDS011;14402;48.178;11.566;2024-03-08T02:03:10;12.6;;;11.3;;
26824;SDS011;14402;48.178;11.566;2024-03-08T02:03:40;12.6;;;11.3;;
26824;SDS011;14402;48.178;11.566;2024-03-08T02:04:10;12.6;;;11.3;;
26824;SDS011;14402;48.178;11.566;2024-03-08T02:04:40;12.5;;;11.2;;
26824;SDS011;14402;48.178;11.566;2024-03-08T02:05:10;12.4;;;11.1;;
26824;SDS011;14402;48.178;11.566;2024-03-08T02:05:40;12.4;;;11.1;;
26824;SDS011;14402;48.178;11.566;2024-03-08T02:06:11;12.4;;;11.1;;
26824;SDS011;14402;48.178;11.566;2024-03-08T02:06:40;12.5;;;11.2;;
26824;SDS011;14402;48.178;11.566;2024-03-08T02:07:10;12.7;;;11.3;;
26824;SDS011;14402;48.178;11.566;2024-03-08T02:07:41;12.7;;;11.3;;
26824;SDS011;14402;48.178;11.566;2024-03-08T02:08:11;12.7;;;11.3;;
26824;SDS011;14402;48.178;11.566;2024-03-08T02:08:41;12.9;;;11.6;;
26824;SDS011;14402;48.178;11.566;2024-03-08T02:09:11;13.2;;;11.8;;
26824;SDS011;14402;48.178;11.566;2024-03-08T02:09:41;13.2;;;11.8;;
26824;SDS011;14402;48.178;11.566;2024-03-08T02:10:11;13.2;;;11.8;;
26824;SDS011;14402;48.178;11.566;2024-03-08T02:10:41;13.4;;;12.0;;
26824;SDS011;14402;48.178;11.566;2024-03-08T02:11:11;13.7;;;12.1;;
26824;SDS011;14402;48.178;11.566;2024-03-08T02:11:41;13.7;;;12.1;;
26824;SDS011;14402;48.178;11.566;2024-03-08T02:12:11;13.7;;;12.1;;
26824;SDS011;14402;48.178;11.566;2024-03-08T02:12:41;13.3;;;11.9;;
26824;SDS011;14402;48.178;11.566;2024-03-08T02:13:11;12.9;;;11.6;;
26824;SDS011;14402;48.178;11.566;2024-03-08T02:13:42;12.9;;;11.6;;
26824;SDS011;14402;48.178;11.566;2024-03-08T02:14:12;12.9;;;11.6;;
26824;SDS011;14402;48.178;11.566;2024-03-08T02:14:42;12.7;;;11.5;;
26824;SDS011;14402;48.178;11.566;2024-03-08T02:15:12;12.5;;;11.3;;
26824;SDS011;14402;48.178;11.566;2024-03-08T02:15:49;12.5;;;11.3;;
26824;SDS011;14402;48.178;11.566;2024-03-08T02:16:12;12.5;;;11.3;;
26824;SDS011;14402;48.178;11.566;2024-03-08T02:16:42;12.4;;;11.2;;
26824;SDS011;14402;48.178;11.566;2024-03-08T02:17:13;12.3;;;11.1;;
26824;SDS011;14402;48.178;11.566;2024-03-08T02:17:42;12.3;;;11.1;;
26824;SDS011;14402;48.178;11.566;2024-03-08T02:18:12;12.3;;;11.1;;
26824;SDS011;14402;48.178;11.566;2024-03-08T02:18:42;12.4;;;11.1;;
26824;SDS011;14402;48.178;11.566;2024-03-08T02:19:12;12.5;;;11.2;;
26824;SDS011;14402;48.178;11.566;2024-03-08T02:19:43;12.5;;;11.2;;
26824;SDS011;14402;48.178;11.566;2024-03-08T02:20:13;12.5;;;11.2;;
26824;SDS011;14402;48.178;11.566;2024-03-08T02:20:43;12.9;;;11.5;;
26824;SDS011;14402;48.178;11.566;2024-03-08T02:21:13;13.4;;;11.8;;
26824;SDS011;14402;48.178;11.566;2024-03-08T02:21:43;13.4;;;11.8;;
26824;SDS011;14402;48.178;11.566;2024-03-08T02:22:13;13.4;;;11.8;;
26824;SDS011;14402;48.178;11.566;2024-03-08T02:22:43;13.1;;;11.8;;
26824;SDS011;14402;48.178;11.566;2024-03-08T02:23:13;12.9;;;11.7;;
26824;SDS011;14402;48.178;11.566;2024-03-08T02:23:43;12.9;;;11.7;;
26824;SDS011;14402;48.178;11.566;2024-03-08T02:24:13;12.9;;;11.7;;
26824;SDS011;14402;48.178;11.566;2024-03-08T02:24:43;12.9;;;11.6;;
26824;SDS011;14402;48.178;11.566;2024-03-08T02:25:13;12.9;;;11.6;;
26824;SDS011;14402;48.178;11.566;2024-03-08T02:25:43;12.9;;;11.6;;
26824;SDS011;14402;48.178;11.566;2024-03-08T02:26:14;12.9;;;11.6;;
26824;SDS011;14402;48.178;11.566;2024-03-08T02:26:44;13.1;;;11.8;;
26824;SDS011;14402;48.178;11.566;2024-03-08T02:27:14;13.3;;;11.9;;
26824;SDS011;14402;48.178;11.566;2024-03-08T02:27:44;13.3;;;11.9;;
26824;SDS011;14402;48.178;11.566;2024-03-08T02:28:14;13.3;;;11.9;;
26824;SDS011;14402;48.178;11.566;2024-03-08T02:28:44;13.0;;;11.6;;
26824;SDS011;14402;48.178;11.566;2024-03-08T02:29:14;12.7;;;11.4;;
26824;SDS011;14402;48.178;11.566;2024-03-08T02:29:44;12.7;;;11.4;;
26824;SDS011;14402;48.178;11.566;2024-03-08T02:30:14;12.7;;;11.4;;
26824;SDS011;14402;48.178;11.566;2024-03-08T02:30:45;12.9;;;11.6;;
26824;SDS011;14402;48.178;11.566;2024-03-08T02:31:14;13.1;;;11.8;;
26824;SDS011;14402;48.178;11.566;2024-03-08T02:31:44;13.1;;;11.8;;
26824;SDS011;14402;48.178;11.566;2024-03-08T02:32:15;13.1;;;11.8;;
26824;SDS011;14402;48.178;11.566;2024-03-08T02:32:45;13.0;;;11.6;;
26824;SDS011;14402;48.178;11.566;2024-03-08T02:33:15;12.8;;;11.5;;
26824;SDS011;14402;48.178;11.566;2024-03-08T02:33:45;12.8;;;11.5;;
26824;SDS011;14402;48.178;11.566;2024-03-08T02:34:15;12.8;;;11.5;;
26824;SDS011;14402;48.178;11.566;2024-03-08T02:34:45;12.9;;;11.6;;
26824;SDS011;14402;48.178;11.566;2024-03-08T02:35:15;12.9;;;11.6;;
26824;SDS011;14402;48.178;11.566;2024-03-08T02:35:45;12.9;;;11.6;;
26824;SDS011;14402;48.178;11.566;2024-03-08T02:36:15;12.9;;;11.6;;
26824;SDS011;14402;48.178;11.566;2024-03-08T02:36:45;13.0;;;11.7;;
26824;SDS011;14402;48.178;11.566;2024-03-08T02:37:15;13.1;;;11.8;;
26824;SDS011;14402;48.178;11.566;2024-03-08T02:37:45;13.1;;;11.8;;
26824;SDS011;14402;48.178;11.566;2024-03-08T02:38:16;13.1;;;11.8;;
26824;SDS011;14402;48.178;11.566;2024-03-08T02:38:46;13.2;;;11.9;;
26824;SDS011;14402;48.178;11.566;2024-03-08T02:39:16;13.3;;;12.0;;
26824;SDS011;14402;48.178;11.566;2024-03-08T02:39:46;13.3;;;12.0;;
26824;SDS011;14402;48.178;11.566;2024-03-08T02:40:16;13.3;;;12.0;;
26824;SDS011;14402;48.178;11.566;2024-03-08T02:40:46;13.2;;;11.9;;
26824;SDS011;14402;48.178;11.566;2024-03-08T02:41:16;13.2;;;11.9;;
26824;SDS011;14402;48.178;11.566;2024-03-08T02:41:46;13.2;;;11.9;;
26824;SDS011;14402;48.178;11.566;2024-03-08T02:42:16;13.2;;;11.9;;
26824;SDS011;14402;48.178;11.566;2024-03-08T02:42:46;13.4;;;12.0;;
26824;SDS011;14402;48.178;11.566;2024-03-08T02:43:17;13.6;;;12.2;;
26824;SDS011;14402;48.178;11.566;2024-03-08T02:43:46;13.6;;;12.2;;
26824;SDS011;14402;48.178;11.566;2024-03-08T02:44:17;13.6;;;12.2;;
26824;SDS011;14402;48.178;11.566;2024-03-08T02:44:47;13.4;;;12.0;;
26824;SDS011;14402;48.178;11.566;2024-03-08T02:45:17;13.2;;;11.8;;
26824;SDS011;14402;48.178;11.566;2024-03-08T02:45:47;13.2;;;11.8;;
26824;SDS011;14402;48.178;11.566;2024-03-08T02:46:17;13.2;;;11.8;;
26824;SDS011;14402;48.178;11.566;2024-03-08T02:46:47;13.6;;;11.8;;
26824;SDS011;14402;48.178;11.566;2024-03-08T02:47:17;14.0;;;11.8;;
26824;SDS011;14402;48.178;11.566;2024-03-08T02:47:47;14.0;;;11.8;;
26824;SDS011;14402;48.178;11.566;2024-03-08T02:48:17;14.0;;;11.8;;
26824;SDS011;14402;48.178;11.566;2024-03-08T02:48:47;13.7;;;11.9;;
26824;SDS011;14402;48.178;11.566;2024-03-08T02:49:17;13.4;;;12.0;;
26824;SDS011;14402;48.178;11.566;2024-03-08T02:49:47;13.4;;;12.0;;
26824;SDS011;14402;48.178;11.566;2024-03-08T02:50:18;13.4;;;12.0;;
26824;SDS011;14402;48.178;11.566;2024-03-08T02:50:48;13.2;;;11.9;;
26824;SDS011;14402;48.178;11.566;2024-03-08T02:51:18;13.0;;;11.7;;
26824;SDS011;14402;48.178;11.566;2024-03-08T02:51:48;13.0;;;11.7;;
26824;SDS011;14402;48.178;11.566;2024-03-08T02:52:18;13.0;;;11.7;;
26824;SDS011;14402;48.178;11.566;2024-03-08T02:52:48;13.3;;;11.9;;
26824;SDS011;14402;48.178;11.566;2024-03-08T02:53:18;13.6;;;12.2;;
26824;SDS011;14402;48.178;11.566;2024-03-08T02:53:48;13.6;;;12.2;;
26824;SDS011;14402;48.178;11.566;2024-03-08T02:54:18;13.6;;;12.2;;
26824;SDS011;14402;48.178;11.566;2024-03-08T02:54:48;13.4;;;12.0;;
26824;SDS011;14402;48.178;11.566;2024-03-08T02:55:18;13.2;;;11.9;;
26824;SDS011;14402;48.178;11.566;2024-03-08T02:55:48;13.2;;;11.9;;
26824;SDS011;14402;48.178;11.566;2024-03-08T02:56:19;13.2;;;11.9;;
26824;SDS011;14402;48.178;11.566;2024-03-08T02:56:48;13.4;;;12.1;;
26824;SDS011;14402;48.178;11.566;2024-03-08T02:57:19;13.7;;;12.3;;
26824;SDS011;14402;48.178;11.566;2024-03-08T02:57:49;13.7;;;12.3;;
26824;SDS011;14402;48.178;11.566;2024-03-08T02:58:19;13.7;;;12.3;;
26824;SDS011;14402;48.178;11.566;2024-03-08T02:58:49;13.8;;;12.4;;